Time,TemperatureF,DewpointF,PressureIn,WindDirection,WindDirectionDegrees,WindSpeedMPH,WindSpeedGustMPH,Humidity,HourlyPrecipIn,Conditions,Clouds,dailyrainin,SoftwareType,DateUTC
2014-03-15 00:22:00,42.0,22.0,29.83,SSW,210,7.0,9.0,45,0.00,,,0.00,,2014-03-15 05:22:00,
2014-03-15 00:43:00,42.0,22.0,29.83,SSW,211,7.0,8.0,44,0.00,,,0.00,,2014-03-15 05:43:00,
2014-03-15 00:52:00,41.0,21.0,29.82,SW,217,6.0,8.0,44,0.00,,,0.00,,2014-03-15 05:52:00,
2014-03-15 01:12:00,41.0,21.0,29.81,SW,215,7.0,8.0,45,0.00,,,0.00,,2014-03-15 06:12:00,
2014-03-15 01:22:00,39.0,20.0,29.81,SW,219,5.0,7.0,47,0.00,,,0.00,,2014-03-15 06:22:00,
2014-03-15 01:42:00,41.0,22.0,29.81,SW,222,6.0,9.0,47,0.00,,,0.00,,2014-03-15 06:42:00,
2014-03-15 01:53:00,42.0,23.0,29.81,SW,222,6.0,9.0,46,0.00,,,0.00,,2014-03-15 06:53:00,
2014-03-15 02:12:00,42.0,23.0,29.80,SW,218,6.0,9.0,46,0.00,,,0.00,,2014-03-15 07:12:00,
2014-03-15 02:22:00,42.0,23.0,29.80,SW,223,6.0,10.0,47,0.00,,,0.00,,2014-03-15 07:22:00,
2014-03-15 02:42:00,42.0,22.0,29.79,SW,221,7.0,10.0,45,0.00,,,0.00,,2014-03-15 07:42:00,
2014-03-15 02:52:00,42.0,22.0,29.79,SW,219,5.0,12.0,45,0.00,,,0.00,,2014-03-15 07:52:00,
2014-03-15 03:22:00,40.0,22.0,29.79,SSW,212,7.0,10.0,49,0.00,,,0.00,,2014-03-15 08:22:00,
2014-03-15 03:53:00,39.0,22.0,29.78,SW,221,5.0,10.0,51,0.00,,,0.00,,2014-03-15 08:53:00,
2014-03-15 04:22:00,39.0,23.0,29.78,SW,221,7.0,12.0,52,0.00,,,0.00,,2014-03-15 09:22:00,
2014-03-15 04:43:00,39.0,23.0,29.77,SW,224,6.0,10.0,53,0.00,,,0.00,,2014-03-15 09:43:00,
2014-03-15 04:54:00,38.0,23.0,29.76,SW,221,7.0,9.0,55,0.00,,,0.00,,2014-03-15 09:54:00,
2014-03-15 05:23:00,36.0,23.0,29.75,SW,230,7.0,9.0,58,0.00,,,0.00,,2014-03-15 10:23:00,
2014-03-15 05:43:00,36.0,23.0,29.76,WSW,247,7.0,9.0,59,0.00,,,0.00,,2014-03-15 10:43:00,
2014-03-15 05:53:00,35.0,23.0,29.76,WSW,238,7.0,9.0,61,0.00,,,0.00,,2014-03-15 10:53:00,
2014-03-15 06:12:00,36.0,23.0,29.76,WSW,250,6.0,10.0,60,0.00,,,0.00,,2014-03-15 11:12:00,
2014-03-15 06:22:00,35.0,24.0,29.77,WSW,237,5.0,9.0,63,0.00,,,0.00,,2014-03-15 11:22:00,
2014-03-15 06:43:00,34.0,23.0,29.76,SW,235,4.0,6.0,65,0.00,,,0.00,,2014-03-15 11:43:00,
2014-03-15 06:53:00,34.0,24.0,29.76,WSW,240,7.0,9.0,67,0.00,,,0.00,,2014-03-15 11:53:00,
2014-03-15 07:22:00,34.0,25.0,29.75,West,261,6.0,9.0,68,0.00,,,0.00,,2014-03-15 12:22:00,
2014-03-15 07:42:00,35.0,25.0,29.75,West,269,7.0,8.0,67,0.00,,,0.00,,2014-03-15 12:42:00,
2014-03-15 07:52:00,35.0,25.0,29.75,West,267,7.0,8.0,66,0.00,,,0.00,,2014-03-15 12:52:00,
2014-03-15 08:22:00,34.0,25.0,29.75,WSW,253,7.0,8.0,70,0.00,,,0.00,,2014-03-15 13:22:00,
2014-03-15 08:42:00,33.0,25.0,29.75,WSW,244,4.0,6.0,71,0.00,,,0.00,,2014-03-15 13:42:00,
2014-03-15 08:52:00,36.0,27.0,29.75,WSW,242,5.0,12.0,69,0.00,,,0.00,,2014-03-15 13:52:00,
2014-03-15 09:22:00,42.0,31.0,29.75,West,264,8.0,15.0,64,0.00,,,0.00,,2014-03-15 14:22:00,
2014-03-15 10:22:00,51.0,31.0,29.75,WNW,283,15.0,25.0,46,0.00,,,0.00,,2014-03-15 15:22:00,
2014-03-15 10:54:00,53.0,31.0,29.74,NW,309,14.0,29.0,42,0.00,,,0.00,,2014-03-15 15:54:00,
2014-03-15 11:23:00,54.0,30.0,29.80,North,355,6.0,23.0,39,0.00,,,0.00,,2014-03-15 16:23:00,
2014-03-15 11:43:00,55.0,29.0,29.80,NW,326,4.0,12.0,37,0.00,,,0.00,,2014-03-15 16:43:00,
2014-03-15 11:53:00,55.0,29.0,29.80,North,349,5.0,17.0,37,0.00,,,0.00,,2014-03-15 16:53:00,
2014-03-15 12:22:00,56.0,30.0,29.81,North,355,7.0,15.0,37,0.00,,,0.00,,2014-03-15 17:22:00,
2014-03-15 12:43:00,57.0,30.0,29.81,NNE,24,7.0,13.0,35,0.00,,,0.00,,2014-03-15 17:43:00,
2014-03-15 12:52:00,58.0,28.0,29.82,North,351,8.0,14.0,32,0.00,,,0.00,,2014-03-15 17:52:00,
2014-03-15 13:12:00,58.0,28.0,29.82,North,355,6.0,13.0,32,0.00,,,0.00,,2014-03-15 18:12:00,
2014-03-15 13:22:00,60.0,28.0,29.83,North,9,8.0,16.0,30,0.00,,,0.00,,2014-03-15 18:22:00,
2014-03-15 13:42:00,61.0,29.0,29.84,North,10,7.0,15.0,30,0.00,,,0.00,,2014-03-15 18:42:00,
2014-03-15 13:52:00,61.0,29.0,29.85,North,5,9.0,16.0,29,0.00,,,0.00,,2014-03-15 18:52:00,
2014-03-15 14:22:00,61.0,29.0,29.88,WNW,298,9.0,18.0,29,0.00,,,0.00,,2014-03-15 19:22:00,
2014-03-15 14:52:00,62.0,29.0,29.88,NE,34,7.0,14.0,29,0.00,,,0.00,,2014-03-15 19:52:00,
2014-03-15 15:22:00,62.0,29.0,29.89,NNE,32,8.0,18.0,28,0.00,,,0.00,,2014-03-15 20:22:00,
2014-03-15 15:42:00,60.0,28.0,29.90,North,355,7.0,15.0,30,0.00,,,0.00,,2014-03-15 20:42:00,
2014-03-15 15:52:00,60.0,28.0,29.90,North,5,9.0,13.0,29,0.00,,,0.00,,2014-03-15 20:52:00,
2014-03-15 16:22:00,55.0,37.0,29.93,NNW,343,14.0,30.0,50,0.00,,,0.00,,2014-03-15 21:22:00,
2014-03-15 16:43:00,53.0,37.0,29.94,NNW,330,15.0,30.0,54,0.00,,,0.00,,2014-03-15 21:43:00,
2014-03-15 17:23:00,50.0,39.0,29.98,WNW,300,23.0,31.0,65,0.00,,,0.00,,2014-03-15 22:23:00,
2014-03-15 17:42:00,50.0,40.0,29.99,NW,310,14.0,28.0,68,0.00,,,0.00,,2014-03-15 22:42:00,
2014-03-15 17:53:00,50.0,39.0,30.00,NW,318,18.0,26.0,67,0.00,,,0.00,,2014-03-15 22:53:00,
2014-03-15 18:22:00,49.0,39.0,30.02,NW,320,15.0,27.0,68,0.00,,,0.00,,2014-03-15 23:22:00,
2014-03-15 18:43:00,48.0,39.0,30.03,NNW,340,12.0,27.0,71,0.00,,,0.00,,2014-03-15 23:43:00,
2014-03-15 18:52:00,47.0,38.0,30.04,NNW,334,13.0,28.0,72,0.00,,,0.00,,2014-03-15 23:52:00,
2014-03-15 19:12:00,47.0,39.0,30.05,NNW,328,12.0,21.0,73,0.00,,,0.00,,2014-03-16 00:12:00,
2014-03-15 19:22:00,45.0,35.0,30.06,NNW,346,8.0,18.0,69,0.00,,,0.00,,2014-03-16 00:22:00,
2014-03-15 19:42:00,46.0,36.0,30.07,North,360,9.0,15.0,67,0.00,,,0.00,,2014-03-16 00:42:00,
2014-03-15 19:53:00,44.0,34.0,30.06,North,355,8.0,19.0,69,0.00,,,0.00,,2014-03-16 00:53:00,
2014-03-15 20:11:00,42.0,34.0,30.08,NNE,21,7.0,17.0,74,0.00,,,0.00,,2014-03-16 01:11:00,
2014-03-15 20:22:00,41.0,35.0,30.08,North,355,8.0,14.0,78,0.00,,,0.00,,2014-03-16 01:22:00,
2014-03-15 20:42:00,41.0,35.0,30.09,NNW,336,7.0,17.0,80,0.00,,,0.00,,2014-03-16 01:42:00,
2014-03-15 20:52:00,40.0,35.0,30.10,North,355,7.0,11.0,82,0.00,,,0.00,,2014-03-16 01:52:00,
2014-03-15 21:22:00,39.0,35.0,30.11,NNE,19,7.0,13.0,84,0.00,,,0.00,,2014-03-16 02:22:00,
2014-03-15 21:42:00,39.0,34.0,30.12,North,5,6.0,14.0,83,0.00,,,0.00,,2014-03-16 02:42:00,
2014-03-15 21:52:00,38.0,33.0,30.14,NNE,12,6.0,9.0,82,0.00,,,0.00,,2014-03-16 02:52:00,
2014-03-15 22:12:00,37.0,32.0,30.15,NE,34,5.0,8.0,83,0.00,,,0.00,,2014-03-16 03:12:00,
2014-03-15 22:22:00,37.0,33.0,30.17,NE,34,5.0,7.0,85,0.00,,,0.00,,2014-03-16 03:22:00,
2014-03-15 22:43:00,37.0,33.0,30.17,NE,43,4.0,9.0,85,0.00,,,0.00,,2014-03-16 03:43:00,
2014-03-15 22:53:00,36.0,32.0,30.18,NNE,30,4.0,10.0,85,0.00,,,0.00,,2014-03-16 03:53:00,
2014-03-15 23:03:00,-999.0,-99.9,30.19,North,5,4.0,11.0,86,0.00,,,0.00,,2014-03-16 04:03:00,
2014-03-15 23:13:00,36.0,32.0,30.19,North,5,4.0,11.0,86,0.00,,,0.00,,2014-03-16 04:13:00,
2014-03-15 23:23:00,36.0,32.0,30.20,NE,47,3.0,9.0,85,0.00,,,0.00,,2014-03-16 04:23:00,
2014-03-15 23:43:00,36.0,31.0,30.20,NE,44,9.0,12.0,83,0.00,,,0.00,,2014-03-16 04:43:00,
2014-03-15 23:53:00,36.0,30.0,30.22,NNE,27,3.0,12.0,79,0.00,,,0.00,,2014-03-16 04:53:00,